Time;durP1;ratioP1;P1;durP2;ratioP2;P2;SDS_P1;SDS_P2;PMS_P1;PMS_P2;Temp;Humidity;BMP_temperature;BMP_pressure;BME280_temperature;BME280_humidity;BME280_pressure;Samples;Min_cycle;Max_cycle;Signal;HPM_P1;HPM_P2
2022/11/12 00:02:10;;;;;;;;;24.75;24.50;;;;;11.25;76.60;102307.94;4996938;28;45156;-55
2022/11/12 00:04:35;;;;;;;;;12.00;8.50;;;;;11.25;77.14;102303.31;5017261;28;45417;-55
2022/11/12 00:07:01;;;;;;;;;14.25;12.50;;;;;10.95;76.57;102277.50;5017211;28;45420;-56
2022/11/12 00:09:26;;;;;;;;;25.25;23.75;;;;;11.10;77.30;102305.13;5015723;28;45545;-57
2022/11/12 00:11:52;;;;;;;;;22.75;17.75;;;;;11.14;77.10;102311.09;5017190;28;45412;-56
2022/11/12 00:14:17;;;;;;;;;21.75;19.25;;;;;11.12;76.91;102309.38;5017351;28;45649;-54
2022/11/12 00:16:43;;;;;;;;;26.25;21.25;;;;;11.11;77.63;102298.59;5015718;28;45406;-61
2022/11/12 00:19:08;;;;;;;;;25.50;22.00;;;;;10.89;77.03;102265.31;5015566;28;45483;-56
2022/11/12 00:21:34;;;;;;;;;22.75;20.00;;;;;11.11;77.54;102315.91;5015856;28;45442;-57
2022/11/12 00:24:00;;;;;;;;;23.80;20.20;;;;;11.13;77.31;102315.75;5017010;28;45611;-56
2022/11/12 00:26:25;;;;;;;;;17.50;16.75;;;;;10.94;77.22;102281.28;5015317;28;45562;-55
2022/11/12 00:28:51;;;;;;;;;21.50;19.25;;;;;10.87;77.33;102280.28;5014978;28;45445;-53
2022/11/12 00:31:17;;;;;;;;;22.25;19.25;;;;;11.12;76.85;102314.88;5017476;28;45298;-53
2022/11/12 00:33:42;;;;;;;;;26.00;25.00;;;;;11.14;77.13;102316.59;4985428;28;45925;-56
2022/11/12 00:36:09;;;;;;;;;25.25;22.50;;;;;11.07;76.99;102298.09;4990172;28;47364;-56
2022/11/12 00:38:34;;;;;;;;;22.60;22.40;;;;;11.15;76.73;102313.66;4995942;28;45399;-56
2022/11/12 00:41:00;;;;;;;;;22.75;20.25;;;;;11.12;76.63;102298.38;4995496;28;45393;-54
2022/11/12 00:43:25;;;;;;;;;22.25;22.25;;;;;11.08;76.46;102301.66;4997101;28;45333;-53
2022/11/12 00:45:51;;;;;;;;;23.25;22.00;;;;;11.06;76.70;102298.25;4996535;28;46108;-56
2022/11/12 00:48:16;;;;;;;;;27.00;23.50;;;;;11.02;76.67;102289.50;4997136;28;45554;-56
2022/11/12 00:50:42;;;;;;;;;28.00;24.25;;;;;11.08;76.91;102301.66;4995823;28;45396;-53
2022/11/12 00:53:08;;;;;;;;;24.25;19.75;;;;;11.13;76.53;102304.75;4997090;28;45391;-55
2022/11/12 00:55:33;;;;;;;;;27.00;23.00;;;;;11.12;76.73;102303.03;4996862;28;46096;-53
2022/11/12 00:57:59;;;;;;;;;22.00;20.75;;;;;10.95;76.45;102274.75;4995319;28;45441;-55
2022/11/12 01:00:24;;;;;;;;;24.00;22.00;;;;;10.88;76.38;102271.84;4996657;28;45476;-54
2022/11/12 01:02:50;;;;;;;;;23.25;21.25;;;;;11.09;76.25;102304.25;5011130;28;45458;-57
2022/11/12 01:05:15;;;;;;;;;26.00;22.25;;;;;11.09;76.85;102309.75;5016342;28;46512;-56
2022/11/12 01:07:41;;;;;;;;;20.00;20.00;;;;;11.09;76.63;102314.38;5016665;28;45416;-52
2022/11/12 01:10:08;;;;;;;;;33.25;24.50;;;;;11.09;76.58;102303.38;5016287;28;45466;-55
2022/11/12 01:12:33;;;;;;;;;23.80;23.40;;;;;11.06;76.52;102292.75;5016943;28;45235;-53
2022/11/12 01:14:59;;;;;;;;;27.25;21.00;;;;;11.00;76.91;102290.72;5016193;28;45355;-57
2022/11/12 01:17:24;;;;;;;;;24.50;22.50;;;;;11.03;77.23;102298.59;5015986;28;45306;-56
2022/11/12 01:19:50;;;;;;;;;20.75;18.75;;;;;11.04;76.87;102300.31;5016325;28;45455;-56
2022/11/12 01:22:15;;;;;;;;;22.75;21.75;;;;;11.04;76.72;102298.41;5016478;28;45568;-55
2022/11/12 01:24:41;;;;;;;;;25.75;23.00;;;;;11.05;77.13;102297.38;5014698;28;47315;-55
2022/11/12 01:27:06;;;;;;;;;24.50;22.50;;;;;11.04;76.96;102292.09;5014995;28;45542;-55
2022/11/12 01:29:32;;;;;;;;;23.00;20.75;;;;;11.00;77.18;102288.84;5015735;28;45390;-55
2022/11/12 01:31:57;;;;;;;;;25.00;20.50;;;;;11.02;76.88;102286.75;5016111;28;45350;-57
2022/11/12 01:34:23;;;;;;;;;21.00;20.25;;;;;11.00;76.91;102274.22;5015674;28;46086;-56
2022/11/12 01:36:48;;;;;;;;;22.00;21.25;;;;;11.01;76.68;102284.19;5015798;28;45345;-55
2022/11/12 01:39:13;;;;;;;;;25.75;22.75;;;;;11.00;77.17;102285.22;5015691;28;45316;-55
2022/11/12 01:41:39;;;;;;;;;20.75;19.00;;;;;11.00;76.74;102280.59;5016256;28;45678;-55
2022/11/12 01:44:21;;;;;;;;;18.25;18.25;;;;;10.79;76.71;102248.19;5015338;28;45345;-56
2022/11/12 01:46:55;;;;;;;;;27.20;23.60;;;;;10.78;77.01;102241.00;5015844;28;45464;-53
2022/11/12 01:49:26;;;;;;;;;22.80;22.00;;;;;10.97;77.24;102279.06;4989158;28;45453;-55
2022/11/12 01:51:52;;;;;;;;;20.20;19.20;;;;;10.95;77.02;102269.28;5013610;28;45442;-55
2022/11/12 01:54:18;;;;;;;;;27.50;24.00;;;;;10.74;77.22;102239.63;5011362;28;47243;-55
2022/11/12 01:56:43;;;;;;;;;21.25;21.25;;;;;10.77;77.17;102253.03;5010907;28;45440;-55
2022/11/12 01:59:29;;;;;;;;;21.75;21.75;;;;;10.62;77.40;102225.44;5014034;28;45401;-55
2022/11/12 02:01:55;;;;;;;;;22.40;22.40;;;;;10.78;77.28;102258.31;5010561;28;45291;-60
2022/11/12 02:04:20;;;;;;;;;22.75;22.75;;;;;10.88;77.94;102269.09;4994035;28;45377;-56
2022/11/12 02:06:46;;;;;;;;;22.00;22.00;;;;;10.70;77.36;102244.63;4993973;28;45405;-56
2022/11/12 02:09:12;;;;;;;;;20.75;20.75;;;;;10.81;76.75;102248.88;4994526;28;45409;-56
2022/11/12 02:11:38;;;;;;;;;23.20;18.00;;;;;10.91;76.75;102265.16;4994235;28;45487;-54
2022/11/12 02:14:04;;;;;;;;;25.75;21.50;;;;;10.92;76.57;102273.22;4995208;28;45658;-55
2022/11/12 02:16:33;;;;;;;;;25.00;22.50;;;;;10.91;77.07;102265.16;4995569;28;45385;-55
2022/11/12 02:18:59;;;;;;;;;24.40;21.20;;;;;10.91;76.92;102274.25;4993893;28;45408;-52
2022/11/12 02:21:25;;;;;;;;;20.25;18.25;;;;;10.95;76.32;102281.09;4995213;28;45495;-55
2022/11/12 02:24:13;;;;;;;;;24.75;21.75;;;;;10.91;76.46;102290.75;4994955;28;45693;-57
2022/11/12 02:26:46;;;;;;;;;24.20;21.00;;;;;10.92;76.45;102288.84;4994752;28;45311;-56
2022/11/12 02:29:11;;;;;;;;;21.60;18.20;;;;;10.90;76.33;102272.56;4995434;28;45451;-57
2022/11/12 02:31:37;;;;;;;;;22.75;20.00;;;;;10.71;76.17;102230.72;4995794;28;45620;-54
2022/11/12 02:34:02;;;;;;;;;27.25;26.00;;;;;10.89;76.50;102270.81;4993813;28;47993;-55
2022/11/12 02:36:28;;;;;;;;;27.00;23.00;;;;;10.86;76.55;102260.19;4995442;28;45464;-53
2022/11/12 02:38:53;;;;;;;;;19.75;18.75;;;;;10.84;76.64;102256.78;4994196;28;45480;-55
2022/11/12 02:41:19;;;;;;;;;23.00;21.75;;;;;10.89;76.02;102256.25;4995050;28;45587;-56
2022/11/12 02:43:44;;;;;;;;;21.25;20.50;;;;;10.87;75.88;102255.56;4993827;28;45811;-55
2022/11/12 02:46:10;;;;;;;;;24.50;22.00;;;;;10.90;76.39;102255.19;4995239;28;45532;-55
2022/11/12 02:48:35;;;;;;;;;19.75;18.75;;;;;10.71;76.25;102232.59;4995538;28;45385;-54
2022/11/12 02:51:01;;;;;;;;;26.75;25.25;;;;;10.83;76.82;102261.41;4995028;28;45412;-52
2022/11/12 02:53:26;;;;;;;;;23.25;21.50;;;;;10.79;76.16;102256.44;4994035;28;46268;-55
2022/11/12 02:55:52;;;;;;;;;20.50;18.25;;;;;10.76;76.21;102238.44;4993685;28;45404;-56
2022/11/12 02:58:17;;;;;;;;;21.00;21.00;;;;;10.84;76.18;102252.13;4995290;28;45371;-55
2022/11/12 03:00:43;;;;;;;;;25.25;24.00;;;;;10.82;76.79;102256.94;4972999;28;45954;-56
2022/11/12 03:03:08;;;;;;;;;25.50;25.50;;;;;10.61;76.81;102218.22;5002048;28;45748;-55
2022/11/12 03:05:34;;;;;;;;;24.25;22.00;;;;;10.86;76.38;102249.22;5013567;28;45383;-52
2022/11/12 03:08:04;;;;;;;;;21.00;20.00;;;;;10.63;76.19;102219.78;5014797;28;45334;-54
2022/11/12 03:10:30;;;;;;;;;23.80;23.60;;;;;10.80;76.76;102252.66;5014937;28;45282;-55
2022/11/12 03:12:56;;;;;;;;;24.75;23.25;;;;;10.81;76.56;102243.38;5014527;28;46093;-54
2022/11/12 03:15:21;;;;;;;;;22.50;21.75;;;;;10.78;76.30;102243.75;5013066;28;45396;-56
2022/11/12 03:17:47;;;;;;;;;21.75;21.75;;;;;10.46;77.08;102199.72;5014887;28;45200;-54
2022/11/12 03:20:12;;;;;;;;;25.00;23.00;;;;;10.47;76.72;102204.19;5014626;28;45184;-52
2022/11/12 03:22:38;;;;;;;;;24.00;21.00;;;;;10.65;77.18;102230.56;5014496;28;45831;-56
2022/11/12 03:25:04;;;;;;;;;24.50;24.50;;;;;10.68;76.87;102233.81;5014206;28;45901;-53
2022/11/12 03:27:30;;;;;;;;;25.60;25.60;;;;;10.70;77.07;102230.88;5013011;28;45276;-56
2022/11/12 03:29:55;;;;;;;;;21.00;19.00;;;;;10.72;76.72;102231.56;5014753;28;45503;-52
2022/11/12 03:32:21;;;;;;;;;19.25;17.00;;;;;10.70;76.72;102228.16;5013844;28;45446;-53
2022/11/12 03:34:46;;;;;;;;;22.25;20.25;;;;;10.47;76.64;102200.59;5014692;28;45799;-55
2022/11/12 03:37:11;;;;;;;;;23.00;19.50;;;;;10.65;76.57;102219.56;5012524;28;45561;-56
2022/11/12 03:39:37;;;;;;;;;23.75;21.75;;;;;10.25;76.84;102148.97;5014134;28;45409;-55
2022/11/12 03:42:03;;;;;;;;;21.50;16.75;;;;;10.61;76.73;102219.06;5012299;28;46480;-51
2022/11/12 03:44:28;;;;;;;;;28.50;24.75;;;;;10.66;77.13;102216.66;4996244;28;45484;-55
2022/11/12 03:46:54;;;;;;;;;29.00;21.00;;;;;10.60;76.88;102202.75;5014164;28;45330;-53
2022/11/12 03:49:19;;;;;;;;;23.00;21.25;;;;;10.68;77.07;102220.06;5014075;28;45926;-55
2022/11/12 03:51:45;;;;;;;;;22.75;22.00;;;;;10.75;76.33;102233.97;5017324;28;46387;-56
2022/11/12 03:54:11;;;;;;;;;17.00;15.50;;;;;10.77;76.48;102237.38;5017184;28;45438;-54
2022/11/12 03:56:37;;;;;;;;;21.50;21.50;;;;;10.49;76.84;102199.38;5017336;28;45470;-55
2022/11/12 03:59:02;;;;;;;;;18.75;18.75;;;;;10.73;76.37;102238.75;5016390;28;45373;-55
2022/11/12 04:01:28;;;;;;;;;23.75;19.75;;;;;10.78;76.61;102246.50;5016502;28;46288;-53
2022/11/12 04:03:53;;;;;;;;;21.75;21.75;;;;;10.35;76.47;102178.94;4997309;28;45307;-55
2022/11/12 04:09:03;;;;;;;;;26.60;23.40;;;;;10.50;76.86;102214.81;4997806;28;45298;-55
2022/11/12 04:11:28;;;;;;;;;19.00;17.50;;;;;10.72;77.14;102242.53;4996792;28;46045;-55
2022/11/12 04:13:54;;;;;;;;;23.75;18.50;;;;;10.77;76.89;102253.03;4997416;28;45367;-53
2022/11/12 04:21:54;;;;;;;;;20.40;17.00;;;;;10.53;77.60;102247.41;4997131;28;45827;-53
2022/11/12 04:27:17;;;;;;;;;18.00;18.00;;;;;10.58;77.92;102255.13;4997114;28;45236;-54
2022/11/12 04:32:27;;;;;;;;;19.60;19.60;;;;;10.59;77.03;102254.09;4996873;28;45748;-55
2022/11/12 04:34:53;;;;;;;;;24.00;22.80;;;;;10.58;77.71;102250.47;4996876;28;45418;-55
2022/11/12 04:37:19;;;;;;;;;22.25;17.50;;;;;10.60;77.05;102249.44;4996895;28;45375;-56
2022/11/12 04:39:44;;;;;;;;;23.25;20.00;;;;;10.60;77.10;102247.56;4995420;28;45337;-52
2022/11/12 04:45:03;;;;;;;;;24.20;19.40;;;;;10.68;76.77;102252.19;4996636;28;45303;-55
2022/11/12 04:47:30;;;;;;;;;23.60;22.00;;;;;10.68;77.44;102246.69;4995670;28;45481;-52
2022/11/12 04:49:55;;;;;;;;;20.60;20.60;;;;;10.63;77.27;102249.09;4997051;28;45354;-55
2022/11/12 04:52:21;;;;;;;;;24.75;21.00;;;;;10.41;77.70;102219.44;4996415;28;45594;-55
2022/11/12 04:54:47;;;;;;;;;24.25;22.00;;;;;10.60;77.97;102250.31;4996431;28;45514;-54
2022/11/12 04:57:12;;;;;;;;;20.50;20.25;;;;;10.54;77.51;102245.50;4996675;28;45429;-52
2022/11/12 04:59:37;;;;;;;;;25.50;21.25;;;;;10.54;77.72;102254.63;4996713;28;45461;-56
2022/11/12 05:02:03;;;;;;;;;21.75;18.75;;;;;10.47;78.04;102239.00;4999861;28;45524;-56
2022/11/12 05:04:28;;;;;;;;;19.25;18.00;;;;;10.55;78.04;102244.47;5002985;28;45815;-54
2022/11/12 05:06:55;;;;;;;;;23.25;19.25;;;;;10.56;78.42;102244.31;4993863;28;45420;-55
2022/11/12 05:09:23;;;;;;;;;23.20;22.00;;;;;10.53;77.70;102233.69;4995244;28;45555;-57
2022/11/12 05:11:48;;;;;;;;;20.40;19.40;;;;;10.58;77.81;102244.16;4994169;28;45390;-55
2022/11/12 05:14:14;;;;;;;;;24.75;19.50;;;;;10.61;77.65;102252.00;4995393;28;45480;-55
2022/11/12 05:16:39;;;;;;;;;24.75;20.00;;;;;10.61;77.53;102252.00;4995559;28;45341;-51
2022/11/12 05:19:05;;;;;;;;;23.75;18.25;;;;;10.58;77.77;102238.66;4993081;28;45286;-56
2022/11/12 05:24:15;;;;;;;;;21.20;18.40;;;;;10.52;77.31;102220.13;4989252;28;45331;-56
2022/11/12 05:26:41;;;;;;;;;24.20;20.20;;;;;10.30;77.81;102189.63;4996011;28;45339;-57
2022/11/12 05:29:06;;;;;;;;;26.00;20.25;;;;;10.65;77.10;102242.41;4996646;28;45202;-57
2022/11/12 05:31:32;;;;;;;;;22.25;19.50;;;;;10.64;76.79;102240.69;4996280;28;45390;-56
2022/11/12 05:33:58;;;;;;;;;22.75;18.25;;;;;10.70;77.15;102241.88;4995957;28;45393;-56
2022/11/12 05:36:23;;;;;;;;;18.50;17.25;;;;;10.33;76.72;102192.00;4996486;28;45277;-57
2022/11/12 05:38:49;;;;;;;;;21.75;17.25;;;;;10.70;76.63;102244.63;4994930;28;45456;-57
2022/11/12 05:41:14;;;;;;;;;20.50;17.25;;;;;10.44;76.46;102194.41;4994447;28;47747;-57
2022/11/12 05:43:40;;;;;;;;;22.75;19.50;;;;;10.74;76.79;102229.50;4978245;28;45424;-57
2022/11/12 05:46:05;;;;;;;;;18.25;15.50;;;;;10.75;76.81;102231.22;4996139;28;45485;-59
2022/11/12 05:48:30;;;;;;;;;18.25;18.25;;;;;9.86;76.65;102095.72;4996279;28;45556;-58
2022/11/12 05:50:56;;;;;;;;;21.25;17.50;;;;;10.70;76.40;102231.75;4995813;28;45589;-57
2022/11/12 05:53:22;;;;;;;;;14.75;13.75;;;;;10.65;76.47;102225.06;4995786;28;45359;-54
2022/11/12 05:55:47;;;;;;;;;17.50;15.50;;;;;10.48;76.13;102205.03;4996250;28;45702;-58
2022/11/12 05:58:12;;;;;;;;;33.25;24.25;;;;;10.38;76.50;102205.19;4994601;28;45395;-57
2022/11/12 06:00:40;;;;;;;;;21.00;20.00;;;;;10.49;76.22;102236.94;4994680;28;48562;-56
2022/11/12 06:03:09;;;;;;;;;21.40;18.60;;;;;10.48;76.68;102246.22;5005408;28;45392;-57
2022/11/12 06:05:35;;;;;;;;;23.40;21.00;;;;;10.49;76.62;102251.53;5005350;28;45361;-56
2022/11/12 06:08:01;;;;;;;;;21.50;18.00;;;;;10.39;77.62;102257.19;4963562;28;45443;-56
2022/11/12 06:10:26;;;;;;;;;18.60;17.80;;;;;10.37;76.96;102262.00;4971050;28;45970;-57
2022/11/12 06:12:52;;;;;;;;;26.50;23.50;;;;;10.41;77.37;102248.78;4976054;28;45336;-55
2022/11/12 06:15:18;;;;;;;;;26.00;23.75;;;;;10.44;77.55;102254.81;4974619;28;45403;-57
2022/11/12 06:17:44;;;;;;;;;30.00;25.50;;;;;10.47;76.94;102250.88;4976155;28;45335;-56
2022/11/12 06:20:09;;;;;;;;;29.00;28.50;;;;;10.51;77.35;102254.13;4975527;28;46483;-56
2022/11/12 06:22:35;;;;;;;;;33.50;28.00;;;;;10.39;76.76;102237.97;4975696;28;45278;-57
2022/11/12 06:25:00;;;;;;;;;26.25;25.00;;;;;10.10;76.91;102198.22;4974623;28;45285;-58
2022/11/12 06:27:26;;;;;;;;;26.75;22.00;;;;;10.21;76.42;102212.59;4975512;28;45315;-58
2022/11/12 06:29:51;;;;;;;;;26.75;23.50;;;;;10.46;76.81;102251.88;4975991;28;45284;-55
2022/11/12 06:32:17;;;;;;;;;23.50;22.25;;;;;10.47;76.75;102252.75;4975141;28;45355;-57
2022/11/12 06:34:42;;;;;;;;;18.50;16.25;;;;;10.48;76.22;102258.06;4974556;28;45703;-55
2022/11/12 06:37:08;;;;;;;;;21.25;21.25;;;;;10.48;76.62;102255.31;4975838;28;45409;-56
2022/11/12 06:39:33;;;;;;;;;24.25;18.00;;;;;10.48;76.97;102259.94;4973855;28;45623;-57
2022/11/12 06:42:00;;;;;;;;;22.00;20.00;;;;;10.17;76.81;102218.44;4975133;28;45340;-55
2022/11/12 06:44:26;;;;;;;;;15.80;14.20;;;;;10.47;76.76;102259.09;4975274;28;45352;-57
2022/11/12 06:46:52;;;;;;;;;22.75;18.00;;;;;10.49;76.81;102261.66;4975839;28;45412;-56
2022/11/12 06:49:17;;;;;;;;;21.50;20.75;;;;;10.48;76.35;102262.69;4975210;28;45453;-55
2022/11/12 06:51:43;;;;;;;;;22.75;20.75;;;;;10.46;75.91;102253.78;4975259;28;45328;-56
2022/11/12 06:54:08;;;;;;;;;25.25;21.00;;;;;10.44;76.39;102256.69;4975611;28;45243;-58
2022/11/12 06:56:34;;;;;;;;;22.50;18.50;;;;;10.34;76.03;102247.75;4974893;28;45347;-57
2022/11/12 06:58:59;;;;;;;;;20.50;18.25;;;;;10.41;75.83;102270.75;4974938;28;45778;-53
2022/11/12 07:01:24;;;;;;;;;23.75;20.50;;;;;10.39;76.40;102270.91;4975120;28;45442;-55
2022/11/12 07:03:51;;;;;;;;;21.50;20.25;;;;;10.38;75.76;102271.94;5006744;28;45403;-51
2022/11/12 07:06:19;;;;;;;;;21.40;20.60;;;;;10.35;76.16;102269.53;5014914;28;45330;-56
2022/11/12 07:08:50;;;;;;;;;25.00;20.60;;;;;10.12;76.36;102231.81;5013938;28;45774;-59
2022/11/12 07:11:17;;;;;;;;;23.40;21.80;;;;;10.37;76.25;102275.72;5014377;28;45302;-55
2022/11/12 07:13:45;;;;;;;;;15.80;13.60;;;;;10.36;76.47;102268.50;5014208;28;45452;-56
2022/11/12 07:16:11;;;;;;;;;21.40;18.40;;;;;10.36;76.11;102271.22;4977029;28;45954;-56
2022/11/12 07:18:37;;;;;;;;;22.50;22.50;;;;;9.57;75.50;102138.25;4989743;28;45692;-57
2022/11/12 07:21:04;;;;;;;;;22.00;16.00;;;;;10.36;76.04;102270.41;4993478;28;45250;-56
2022/11/12 07:23:31;;;;;;;;;22.80;21.40;;;;;10.00;75.81;102212.13;4994598;28;45451;-57
2022/11/12 07:25:58;;;;;;;;;17.80;17.60;;;;;10.35;75.45;102286.00;4996731;28;45341;-56
2022/11/12 07:28:24;;;;;;;;;20.60;20.60;;;;;10.30;76.71;102281.03;4998379;28;46216;-57
2022/11/12 07:30:59;;;;;;;;;23.80;20.60;;;;;10.29;76.23;102287.56;4998079;28;45408;-57
2022/11/12 07:33:25;;;;;;;;;20.20;19.00;;;;;10.27;76.60;102286.88;4998325;28;45796;-57
2022/11/12 07:36:02;;;;;;;;;20.25;19.50;;;;;10.32;76.48;102294.59;4997054;28;46004;-56
2022/11/12 07:38:28;;;;;;;;;25.00;21.20;;;;;10.24;76.18;102278.97;4997928;28;46238;-57
2022/11/12 07:41:16;;;;;;;;;23.60;22.40;;;;;10.39;76.10;102294.75;4997336;28;45362;-56
2022/11/12 07:43:43;;;;;;;;;28.20;23.80;;;;;10.39;76.17;102292.00;4997780;28;45232;-57
2022/11/12 07:46:13;;;;;;;;;24.00;22.00;;;;;10.39;75.96;102283.75;4997290;28;45432;-55
2022/11/12 07:48:39;;;;;;;;;22.80;21.40;;;;;10.40;75.48;102299.19;4996086;28;46320;-57
2022/11/12 07:51:06;;;;;;;;;30.25;26.75;;;;;10.44;75.97;102292.38;4997974;28;45345;-57
2022/11/12 07:53:31;;;;;;;;;23.40;22.40;;;;;10.46;75.86;102290.31;4997765;28;45422;-54
2022/11/12 07:55:58;;;;;;;;;23.50;19.50;;;;;10.47;75.36;102300.28;4997763;28;45355;-56
2022/11/12 07:58:24;;;;;;;;;19.80;17.40;;;;;10.44;75.45;102295.97;4996554;28;46173;-54
2022/11/12 08:00:50;;;;;;;;;23.25;22.00;;;;;10.46;75.71;102309.50;4996293;28;45441;-58
2022/11/12 08:03:15;;;;;;;;;18.60;18.60;;;;;10.50;75.50;102310.91;5007482;28;45379;-57
2022/11/12 08:05:41;;;;;;;;;21.50;21.50;;;;;10.49;75.34;102309.19;5017873;28;45392;-56
2022/11/12 08:08:06;;;;;;;;;23.00;21.50;;;;;10.16;75.04;102263.34;5015681;28;45518;-55
2022/11/12 08:10:32;;;;;;;;;18.50;18.00;;;;;10.22;76.00;102282.91;5016384;28;45492;-57
2022/11/12 08:12:57;;;;;;;;;24.50;21.75;;;;;10.27;75.09;102286.00;5015732;28;45281;-58
2022/11/12 08:15:23;;;;;;;;;20.50;18.75;;;;;10.44;75.62;102323.44;5017643;28;45225;-56
2022/11/12 08:17:48;;;;;;;;;21.00;21.00;;;;;10.49;75.78;102322.03;5017206;28;45311;-58
2022/11/12 08:20:14;;;;;;;;;22.25;22.25;;;;;10.46;75.42;102317.75;5015064;28;46130;-57
2022/11/12 08:22:39;;;;;;;;;22.75;20.00;;;;;10.38;75.49;102299.38;5017337;28;45309;-55
2022/11/12 08:25:06;;;;;;;;;28.75;24.75;;;;;10.28;75.82;102280.34;5017447;28;45559;-55
2022/11/12 08:27:31;;;;;;;;;25.80;21.20;;;;;10.29;75.15;102281.19;5016911;28;45289;-58
2022/11/12 08:29:57;;;;;;;;;23.00;19.75;;;;;10.43;75.43;102308.00;5016964;28;45250;-58
2022/11/12 08:32:23;;;;;;;;;22.75;20.75;;;;;10.62;75.33;102330.59;5015587;28;45453;-55
2022/11/12 08:34:48;;;;;;;;;31.20;26.40;;;;;10.52;75.55;102311.56;5017466;28;45579;-56
2022/11/12 08:37:14;;;;;;;;;23.75;21.75;;;;;10.58;74.76;102319.13;5015465;28;46540;-56
2022/11/12 08:39:39;;;;;;;;;24.50;24.50;;;;;10.60;75.20;102327.19;5016525;28;45400;-56
2022/11/12 08:42:05;;;;;;;;;23.50;18.50;;;;;10.67;74.60;102328.19;5015375;28;45355;-55
2022/11/12 08:44:30;;;;;;;;;22.75;20.75;;;;;10.68;74.72;102329.06;5017034;28;45566;-58
2022/11/12 08:46:56;;;;;;;;;25.00;20.75;;;;;10.68;75.30;102340.91;5016957;28;46150;-55
2022/11/12 08:49:21;;;;;;;;;19.75;18.25;;;;;10.70;75.21;102344.34;5016104;28;45290;-56
2022/11/12 08:51:47;;;;;;;;;21.00;19.00;;;;;10.74;74.93;102341.25;5016978;28;45471;-56
2022/11/12 08:54:12;;;;;;;;;24.25;17.75;;;;;10.66;74.97;102332.00;5016696;28;45570;-57
2022/11/12 08:56:38;;;;;;;;;20.25;19.75;;;;;10.65;75.55;102334.91;5016376;28;46146;-55
2022/11/12 08:59:04;;;;;;;;;28.60;23.00;;;;;10.69;75.73;102326.13;5016423;28;45351;-57
2022/11/12 09:01:29;;;;;;;;;24.50;20.00;;;;;10.72;74.91;102319.44;4963213;28;45495;-54
2022/11/12 09:03:55;;;;;;;;;23.50;20.75;;;;;10.68;75.11;102316.19;5009517;28;45358;-55
2022/11/12 09:06:20;;;;;;;;;22.75;22.25;;;;;10.78;74.97;102321.50;5016281;28;46059;-54
2022/11/12 09:08:46;;;;;;;;;22.00;22.00;;;;;10.83;74.76;102327.31;5016145;28;45437;-57
2022/11/12 09:11:11;;;;;;;;;25.25;21.25;;;;;10.84;74.51;102323.53;5015231;28;45729;-55
2022/11/12 09:13:37;;;;;;;;;20.50;18.00;;;;;10.80;74.76;102311.22;4978958;28;45939;-59
2022/11/12 09:16:03;;;;;;;;;24.00;21.25;;;;;10.91;74.71;102328.34;4979814;28;46589;-54
2022/11/12 09:18:29;;;;;;;;;22.00;20.80;;;;;10.96;75.00;102320.44;4981649;28;46166;-55
2022/11/12 09:20:59;;;;;;;;;22.25;21.25;;;;;10.57;74.18;102261.66;5000078;28;46003;-52
2022/11/12 09:23:24;;;;;;;;;23.80;21.40;;;;;11.03;74.74;102326.06;4993501;28;45751;-58
2022/11/12 09:25:50;;;;;;;;;24.00;23.00;;;;;10.79;74.20;102271.00;4990388;28;45473;-56
2022/11/12 09:28:17;;;;;;;;;24.75;21.75;;;;;11.14;74.25;102314.69;4998015;28;45411;-53
2022/11/12 09:30:46;;;;;;;;;23.60;22.40;;;;;11.18;74.38;102317.94;5010330;28;45529;-53
2022/11/12 09:33:26;;;;;;;;;20.60;20.40;;;;;11.24;74.29;102320.84;5008705;28;45852;-56
2022/11/12 09:35:51;;;;;;;;;29.80;25.00;;;;;11.27;74.08;102316.03;5010081;28;46075;-52
2022/11/12 09:38:17;;;;;;;;;24.25;24.25;;;;;11.07;74.54;102276.09;4993456;28;45541;-54
2022/11/12 09:40:52;;;;;;;;;16.75;16.75;;;;;11.39;73.88;102306.34;4987910;28;45499;-55
2022/11/12 09:43:28;;;;;;;;;26.60;23.00;;;;;11.46;74.00;102314.72;4993083;28;45712;-57
2022/11/12 09:45:55;;;;;;;;;30.80;22.60;;;;;11.51;73.74;102318.66;5008030;28;46331;-59
2022/11/12 09:48:23;;;;;;;;;14.80;11.80;;;;;11.21;73.19;102259.91;4994416;28;45472;-52
2022/11/12 09:51:01;;;;;;;;;29.40;25.60;;;;;10.94;73.24;102220.88;4988732;28;45531;-58
2022/11/12 09:53:35;;;;;;;;;24.20;21.00;;;;;11.58;73.14;102312.47;4992634;28;45475;-55
2022/11/12 09:56:05;;;;;;;;;26.40;22.80;;;;;11.73;73.03;102331.78;4987991;28;46857;-56
2022/11/12 09:58:30;;;;;;;;;28.20;24.40;;;;;11.80;72.80;102330.88;4979844;28;45860;-55
2022/11/12 10:01:00;;;;;;;;;27.75;24.50;;;;;11.85;72.61;102335.00;4990320;28;45863;-55
2022/11/12 10:03:32;;;;;;;;;32.60;28.20;;;;;11.65;71.77;102291.44;4977476;28;45576;-55
2022/11/12 10:06:19;;;;;;;;;28.40;25.40;;;;;11.89;72.56;102339.06;5009372;28;47423;-55
2022/11/12 10:08:49;;;;;;;;;25.80;24.60;;;;;11.94;71.71;102333.88;4995047;28;45594;-56
2022/11/12 10:11:22;;;;;;;;;29.00;25.80;;;;;11.98;72.06;102323.38;4991863;28;45446;-57
2022/11/12 10:14:39;;;;;;;;;29.00;24.00;;;;;12.10;71.87;102330.19;4991334;28;45803;-56
2022/11/12 10:17:15;;;;;;;;;26.80;26.20;;;;;12.15;71.64;102337.91;4967525;28;45890;-57
2022/11/12 10:20:11;;;;;;;;;28.20;25.20;;;;;12.19;71.63;102326.38;4988926;28;45456;-58
2022/11/12 10:22:44;;;;;;;;;26.80;26.80;;;;;12.29;71.27;102334.38;4996953;28;45446;-55
2022/11/12 10:25:17;;;;;;;;;27.00;27.00;;;;;12.34;71.57;102328.31;4987990;28;45460;-54
2022/11/12 10:27:44;;;;;;;;;27.00;26.00;;;;;12.43;71.35;102331.84;4988337;28;45855;-55
2022/11/12 10:30:17;;;;;;;;;29.40;26.20;;;;;12.24;70.63;102276.25;5007736;28;45547;-55
2022/11/12 10:32:44;;;;;;;;;28.40;22.60;;;;;12.51;70.63;102303.38;4985184;28;45388;-53
2022/11/12 10:35:10;;;;;;;;;25.80;23.40;;;;;12.27;70.16;102251.09;5006919;28;45406;-57
2022/11/12 10:37:41;;;;;;;;;24.20;22.80;;;;;12.73;70.45;102310.72;4985128;28;46607;-57
2022/11/12 10:40:28;;;;;;;;;26.00;23.40;;;;;12.76;69.91;102309.50;4988183;28;45555;-57
2022/11/12 10:43:17;;;;;;;;;32.40;28.80;;;;;12.72;70.16;102302.66;4988821;28;45473;-59
2022/11/12 10:45:44;;;;;;;;;24.20;22.00;;;;;12.80;70.29;102302.53;4988399;28;45834;-55
2022/11/12 10:48:39;;;;;;;;;25.20;24.00;;;;;12.93;69.87;102310.19;4988884;28;45544;-55
2022/11/12 10:51:22;;;;;;;;;30.40;26.80;;;;;12.97;69.42;102314.25;4970680;28;45973;-60
2022/11/12 10:53:48;;;;;;;;;29.60;27.20;;;;;12.93;69.77;102299.16;4987736;28;45384;-56
2022/11/12 10:56:27;;;;;;;;;28.00;27.00;;;;;13.06;69.34;102297.59;4987952;28;45329;-58
2022/11/12 10:59:22;;;;;;;;;30.60;29.20;;;;;13.12;69.70;102291.31;4987988;28;45645;-57
2022/11/12 11:01:56;;;;;;;;;29.80;26.40;;;;;13.23;69.01;102281.75;4975915;28;45983;-55
2022/11/12 11:04:34;;;;;;;;;30.40;28.40;;;;;13.31;68.82;102295.41;4997428;28;45568;-56
2022/11/12 11:07:19;;;;;;;;;24.40;22.00;;;;;13.47;68.49;102288.84;5007333;28;45523;-53
2022/11/12 11:09:55;;;;;;;;;30.40;27.60;;;;;13.63;68.47;102262.94;4997513;28;45605;-56
2022/11/12 11:12:32;;;;;;;;;28.80;27.20;;;;;14.29;66.62;102240.84;4987291;28;45734;-55
2022/11/12 11:15:07;;;;;;;;;30.40;29.40;;;;;16.49;60.83;102257.56;4987437;28;45944;-55
2022/11/12 11:17:33;;;;;;;;;26.80;24.20;;;;;18.73;55.53;102248.88;4984539;28;45905;-55
2022/11/12 11:19:58;;;;;;;;;27.00;26.50;;;;;20.84;49.80;102257.56;4992057;28;45894;-51
2022/11/12 11:22:45;;;;;;;;;30.50;28.50;;;;;22.72;46.66;102254.28;4986623;28;45466;-55
2022/11/12 11:25:22;;;;;;;;;23.20;23.20;;;;;24.34;43.02;102250.19;4986761;28;45745;-55
2022/11/12 11:27:53;;;;;;;;;29.00;26.40;;;;;25.62;38.87;102230.63;4985702;28;45450;-58
2022/11/12 11:30:19;;;;;;;;;28.20;26.80;;;;;26.04;38.49;102228.63;4985068;28;45502;-53
2022/11/12 11:32:50;;;;;;;;;31.25;30.00;;;;;26.53;37.61;102218.75;4987096;28;45457;-54